Time;durP1;ratioP1;P1;durP2;ratioP2;P2;SDS_P1;SDS_P2;PMS_P1;PMS_P2;Temp;Humidity;BMP_temperature;BMP_pressure;BME280_temperature;BME280_humidity;BME280_pressure;Samples;Min_cycle;Max_cycle;Signal;HPM_P1;HPM_P2
2022/09/20 00:01:11;;;;;;;8.58;3.55;;;;;;;9.11;100.00;98965.97;1650469;86;21510;-78
2022/09/20 00:03:40;;;;;;;7.33;3.37;;;;;;;9.12;100.00;98964.05;1647031;85;21119;-79
2022/09/20 00:06:09;;;;;;;8.35;4.03;;;;;;;9.13;100.00;98957.44;1652867;85;21199;-78
2022/09/20 00:08:35;;;;;;;7.47;3.80;;;;;;;9.14;100.00;98953.02;1651685;85;20998;-79
2022/09/20 00:11:09;;;;;;;5.58;4.08;;;;;;;9.17;100.00;98948.27;1650433;86;21029;-78
2022/09/20 00:13:36;;;;;;;8.90;3.42;;;;;;;9.18;100.00;98945.77;1652426;85;21062;-78
2022/09/20 00:16:11;;;;;;;6.40;3.52;;;;;;;9.21;100.00;98942.39;1653006;85;21545;-79
2022/09/20 00:18:38;;;;;;;6.00;3.42;;;;;;;9.22;100.00;98939.89;1648397;85;21872;-78
2022/09/20 00:21:05;;;;;;;7.47;3.85;;;;;;;9.23;100.00;98936.03;1662702;83;20943;-79
2022/09/20 00:23:33;;;;;;;6.55;3.42;;;;;;;9.25;100.00;98943.89;1651762;85;21613;-79
2022/09/20 00:26:01;;;;;;;6.42;3.08;;;;;;;9.24;100.00;98944.45;1653556;86;21097;-79
2022/09/20 00:28:28;;;;;;;6.62;3.55;;;;;;;9.25;100.00;98941.16;1653058;85;21042;-79
2022/09/20 00:30:55;;;;;;;7.58;3.22;;;;;;;9.26;100.00;98936.72;1650453;85;21154;-79
2022/09/20 00:33:23;;;;;;;5.60;3.10;;;;;;;9.24;100.00;98936.83;1652146;85;21026;-78
2022/09/20 00:35:50;;;;;;;9.25;3.80;;;;;;;9.23;100.00;98938.77;1650905;86;20969;-78
2022/09/20 00:38:16;;;;;;;6.08;3.67;;;;;;;9.22;100.00;98937.72;1650118;85;20998;-80
2022/09/20 00:40:44;;;;;;;7.08;4.33;;;;;;;9.22;100.00;98930.88;1644860;86;21620;-80
2022/09/20 00:43:17;;;;;;;7.65;4.03;;;;;;;9.22;100.00;98931.67;1653171;85;21124;-80
2022/09/20 00:45:47;;;;;;;6.97;4.55;;;;;;;9.21;100.00;98930.06;1667896;83;20982;-79
2022/09/20 00:48:25;;;;;;;7.45;3.75;;;;;;;9.18;100.00;98935.38;1650951;85;21058;-78
2022/09/20 00:50:56;;;;;;;10.90;4.08;;;;;;;9.16;100.00;98935.70;1651534;86;21097;-78
2022/09/20 00:53:27;;;;;;;14.53;4.25;;;;;;;9.14;100.00;98936.58;1651423;86;21039;-79
2022/09/20 00:55:58;;;;;;;7.78;3.62;;;;;;;9.13;100.00;98933.60;1650223;85;21859;-78
2022/09/20 00:58:26;;;;;;;7.62;3.70;;;;;;;9.12;100.00;98933.92;1651923;86;21113;-78
2022/09/20 01:00:54;;;;;;;8.30;3.80;;;;;;;9.08;100.00;98933.76;1650659;86;20996;-78
2022/09/20 01:03:21;;;;;;;6.20;3.42;;;;;;;9.02;100.00;98929.56;1651796;86;21053;-76
2022/09/20 01:05:50;;;;;;;4.78;2.95;;;;;;;8.95;100.00;98930.59;1619464;86;21046;-78
2022/09/20 01:08:16;;;;;;;8.08;3.62;;;;;;;8.87;100.00;98934.13;1653272;86;21277;-78
2022/09/20 01:10:44;;;;;;;6.30;3.27;;;;;;;8.79;100.00;98932.98;1618407;86;21019;-79
2022/09/20 01:13:11;;;;;;;6.25;3.75;;;;;;;8.71;100.00;98928.85;1653150;86;21378;-79
2022/09/20 01:15:37;;;;;;;6.60;3.30;;;;;;;8.62;100.00;98930.22;1652761;86;21509;-78
2022/09/20 01:18:04;;;;;;;4.15;3.20;;;;;;;8.52;100.00;98932.69;1664099;85;21065;-79
2022/09/20 01:20:35;;;;;;;6.37;3.20;;;;;;;8.45;100.00;98935.64;1654091;85;21213;-79
2022/09/20 01:23:13;;;;;;;7.12;3.17;;;;;;;8.37;100.00;98930.94;1652187;86;20930;-79
2022/09/20 01:26:13;;;;;;;3.83;2.80;;;;;;;8.27;100.00;98928.70;1651522;86;21483;-78
2022/09/20 01:28:41;;;;;;;5.37;3.17;;;;;;;8.18;100.00;98922.94;1651346;86;21011;-81
2022/09/20 01:31:30;;;;;;;6.75;3.77;;;;;;;8.08;100.00;98917.78;1651427;86;21053;-80
2022/09/20 01:34:09;;;;;;;4.08;3.00;;;;;;;7.99;100.00;98916.37;1651460;86;21101;-81
2022/09/20 01:36:51;;;;;;;5.50;2.90;;;;;;;7.89;100.00;98915.27;1653430;85;21002;-81
2022/09/20 01:39:41;;;;;;;7.67;2.85;;;;;;;7.79;100.00;98909.50;1653419;86;20954;-81
2022/09/20 01:42:10;;;;;;;5.47;3.15;;;;;;;7.71;100.00;98913.55;1650784;86;21031;-78
2022/09/20 01:45:10;;;;;;;7.80;3.27;;;;;;;7.62;100.00;98909.39;1650422;86;20976;-82
2022/09/20 01:48:05;;;;;;;9.48;3.15;;;;;;;7.55;100.00;98909.02;1649911;86;39372;-83
2022/09/20 01:51:18;;;;;;;3.72;3.20;;;;;;;7.46;100.00;98911.72;1645776;86;21079;-82
2022/09/20 01:54:23;;;;;;;5.03;3.35;;;;;;;7.39;100.00;98913.27;1653604;86;21593;-82
2022/09/20 01:57:04;;;;;;;8.80;3.10;;;;;;;7.32;100.00;98911.53;1621217;86;20986;-79
2022/09/20 02:00:10;;;;;;;6.35;3.58;;;;;;;7.22;100.00;98913.38;1651380;85;21072;-81
2022/09/20 02:03:04;;;;;;;14.38;3.08;;;;;;;7.15;100.00;98914.36;1651653;86;21184;-79
2022/09/20 02:05:59;;;;;;;12.65;3.22;;;;;;;7.10;100.00;98920.49;1651896;86;20963;-77
2022/09/20 02:08:34;;;;;;;13.62;3.52;;;;;;;7.05;100.00;98924.14;1645191;86;21141;-77
2022/09/20 02:11:12;;;;;;;6.78;3.60;;;;;;;7.02;100.00;98924.76;1649522;86;21566;-80
2022/09/20 02:14:01;;;;;;;7.30;3.47;;;;;;;7.01;100.00;98931.89;1648016;85;21098;-79
2022/09/20 02:16:54;;;;;;;7.62;3.02;;;;;;;6.99;100.00;98922.64;1646221;85;21689;-80
2022/09/20 02:19:34;;;;;;;11.78;3.85;;;;;;;6.97;100.00;98918.05;1657360;85;20982;-80
2022/09/20 02:22:41;;;;;;;8.33;3.37;;;;;;;6.94;100.00;98910.48;1668436;85;21035;-79
2022/09/20 02:25:20;;;;;;;7.65;3.55;;;;;;;6.92;100.00;98919.56;1678680;85;21435;-80
2022/09/20 02:28:13;;;;;;;10.35;3.75;;;;;;;6.91;100.00;98917.94;1677354;83;21076;-79
2022/09/20 02:31:09;;;;;;;8.48;3.85;;;;;;;6.89;100.00;98915.52;1655078;85;21514;-80
2022/09/20 02:34:15;;;;;;;7.47;3.42;;;;;;;6.88;100.00;98914.46;1676976;84;21053;-81
2022/09/20 02:36:53;;;;;;;7.90;3.40;;;;;;;6.89;100.00;98913.35;1680008;84;21010;-81
2022/09/20 02:39:38;;;;;;;7.37;3.20;;;;;;;6.88;100.00;98908.45;1679294;84;20966;-79
2022/09/20 02:42:16;;;;;;;7.12;3.65;;;;;;;6.86;100.00;98909.31;1668950;85;21003;-81
2022/09/20 02:45:08;;;;;;;7.75;3.85;;;;;;;6.82;100.00;98912.95;1677666;84;21831;-81
2022/09/20 02:47:42;;;;;;;9.80;3.95;;;;;;;6.81;100.00;98906.70;1678455;85;20939;-82
2022/09/20 02:50:57;;;;;;;10.40;4.47;;;;;;;6.82;100.00;98910.23;1676722;84;21258;-82
2022/09/20 02:53:32;;;;;;;8.60;3.98;;;;;;;6.82;100.00;98912.41;1649767;85;21022;-82
2022/09/20 02:56:33;;;;;;;15.85;3.70;;;;;;;6.79;100.00;98910.28;1637090;86;21348;-81
2022/09/20 02:59:20;;;;;;;5.80;3.87;;;;;;;6.78;100.00;98906.50;1652441;86;21276;-81
2022/09/20 03:02:12;;;;;;;8.53;3.70;;;;;;;6.76;100.00;98907.36;1651879;86;21565;-81
2022/09/20 03:05:02;;;;;;;4.92;3.85;;;;;;;6.75;100.00;98897.56;1647879;85;21125;-80
2022/09/20 03:07:50;;;;;;;10.58;4.33;;;;;;;6.74;100.00;98904.13;1655829;84;21585;-85
2022/09/20 03:10:44;;;;;;;9.40;4.35;;;;;;;6.75;100.00;98904.38;1679073;84;21556;-83
2022/09/20 03:13:48;;;;;;;8.08;3.67;;;;;;;6.76;100.00;98900.55;1678648;84;21545;-81
2022/09/20 03:16:36;;;;;;;10.58;3.83;;;;;;;6.79;100.00;98901.30;1678621;85;21045;-85
2022/09/20 03:19:26;;;;;;;9.20;4.12;;;;;;;6.80;100.00;98907.00;1676502;84;21570;-82
2022/09/20 03:22:44;;;;;;;8.23;4.80;;;;;;;6.80;100.00;98908.36;1677079;84;21034;-84
2022/09/20 03:25:26;;;;;;;8.83;4.08;;;;;;;6.81;100.00;98908.61;1678051;84;20903;-84
2022/09/20 03:28:28;;;;;;;8.48;4.60;;;;;;;6.85;100.00;98906.89;1676101;84;21204;-83
2022/09/20 03:31:12;;;;;;;6.90;4.22;;;;;;;6.90;100.00;98914.96;1677560;84;21239;-76
2022/09/20 03:34:06;;;;;;;9.45;4.90;;;;;;;6.92;100.00;98914.10;1639725;84;21026;-84
2022/09/20 03:36:55;;;;;;;6.85;4.55;;;;;;;6.95;100.00;98914.82;1653134;85;21070;-74
2022/09/20 03:39:55;;;;;;;8.63;4.50;;;;;;;6.99;100.00;98921.28;1650075;85;21122;-73
2022/09/20 03:42:28;;;;;;;10.35;4.55;;;;;;;7.01;100.00;98922.34;1650166;85;21335;-76
2022/09/20 03:45:05;;;;;;;8.50;4.67;;;;;;;7.02;100.00;98920.67;1603644;85;21102;-75
2022/09/20 03:48:11;;;;;;;8.23;4.50;;;;;;;7.02;100.00;98917.94;1646118;85;21001;-75
2022/09/20 03:50:59;;;;;;;9.65;4.50;;;;;;;7.06;100.00;98918.94;1648462;85;21134;-73
2022/09/20 03:53:48;;;;;;;11.38;4.35;;;;;;;7.10;100.00;98925.39;1643530;85;21070;-73
2022/09/20 03:56:44;;;;;;;11.45;5.62;;;;;;;7.14;100.00;98921.49;1650382;85;21417;-75
2022/09/20 03:59:36;;;;;;;10.70;6.50;;;;;;;7.15;100.00;98928.01;1659777;85;21072;-86
2022/09/20 04:02:19;;;;;;;9.33;5.37;;;;;;;7.18;100.00;98924.67;1656554;85;20951;-82
2022/09/20 04:04:54;;;;;;;11.97;4.97;;;;;;;7.22;100.00;98922.94;1635611;86;21619;-79
2022/09/20 04:08:20;;;;;;;10.45;5.45;;;;;;;7.29;100.00;98928.77;1645227;85;21018;-78
2022/09/20 04:11:16;;;;;;;15.35;4.67;;;;;;;7.37;100.00;98926.42;1649023;85;21975;-84
2022/09/20 04:14:16;;;;;;;9.38;4.75;;;;;;;7.41;100.00;98930.95;1656642;84;20983;-85
2022/09/20 04:17:12;;;;;;;8.45;4.92;;;;;;;7.45;100.00;98929.78;1650397;85;21073;-79
2022/09/20 04:20:05;;;;;;;11.70;4.97;;;;;;;7.50;100.00;98928.30;1650025;85;21014;-78
2022/09/20 04:22:35;;;;;;;14.20;5.10;;;;;;;7.53;100.00;98924.91;1651927;85;21097;-79
2022/09/20 04:25:26;;;;;;;12.10;5.10;;;;;;;7.56;100.00;98920.19;1648618;86;22019;-81
2022/09/20 04:28:00;;;;;;;8.03;5.15;;;;;;;7.61;100.00;98923.61;1647490;85;21761;-78
2022/09/20 04:30:28;;;;;;;14.00;5.70;;;;;;;7.70;100.00;98922.30;1629629;85;21125;-80
2022/09/20 04:33:19;;;;;;;10.45;5.47;;;;;;;7.80;100.00;98923.97;1650350;85;21593;-81
2022/09/20 04:36:29;;;;;;;8.08;4.75;;;;;;;7.87;100.00;98923.78;1652401;86;21089;-83
2022/09/20 04:39:31;;;;;;;10.20;5.62;;;;;;;7.98;100.00;98929.78;1648806;85;21281;-78
2022/09/20 04:42:35;;;;;;;11.57;5.58;;;;;;;8.07;100.00;98931.20;1643166;86;21177;-79
2022/09/20 04:45:20;;;;;;;10.32;5.42;;;;;;;8.14;100.00;98935.06;1651046;85;21089;-87
2022/09/20 04:48:15;;;;;;;12.07;5.70;;;;;;;8.21;100.00;98934.05;1652310;85;20997;-91
2022/09/20 04:50:59;;;;;;;8.48;5.03;;;;;;;8.29;100.00;98938.76;1650725;85;20943;-92
2022/09/20 04:54:00;;;;;;;7.58;4.60;;;;;;;8.37;100.00;98944.61;1644008;85;21329;-89
2022/09/20 04:56:58;;;;;;;7.12;4.15;;;;;;;8.44;100.00;98946.33;1649327;86;21051;-90
2022/09/20 04:59:52;;;;;;;6.65;3.55;;;;;;;8.50;100.00;98945.88;1650341;85;21022;-76
2022/09/20 05:02:58;;;;;;;9.58;4.08;;;;;;;8.55;100.00;98939.45;1640541;84;21560;-75
2022/09/20 05:06:14;;;;;;;7.72;4.45;;;;;;;8.63;100.00;98948.81;1653771;84;21101;-79
2022/09/20 05:09:24;;;;;;;7.90;4.30;;;;;;;8.69;100.00;98947.52;1650835;85;21228;-73
2022/09/20 05:12:22;;;;;;;6.40;3.98;;;;;;;8.74;100.00;98948.17;1654320;85;21113;-83
2022/09/20 05:15:22;;;;;;;6.25;3.08;;;;;;;8.78;100.00;98961.47;1650261;85;20975;-91
2022/09/20 05:18:32;;;;;;;6.03;3.62;;;;;;;8.78;100.00;98958.73;1652878;85;21683;-81
2022/09/20 05:21:36;;;;;;;5.83;3.72;;;;;;;8.77;100.00;98963.96;1654337;85;21038;-81
2022/09/20 05:24:29;;;;;;;6.90;3.87;;;;;;;8.85;100.00;98959.64;1659944;84;21142;-86
2022/09/20 05:27:35;;;;;;;8.08;3.85;;;;;;;8.97;100.00;98963.13;1628759;84;21015;-81
2022/09/20 05:30:23;;;;;;;7.12;4.50;;;;;;;9.02;100.00;98965.72;1674989;84;21061;-79
2022/09/20 05:33:11;;;;;;;11.03;4.45;;;;;;;9.09;100.00;98962.75;1679984;83;21084;-77
2022/09/20 05:36:11;;;;;;;9.03;5.05;;;;;;;9.12;100.00;98966.22;1664080;83;21083;-83
2022/09/20 05:39:04;;;;;;;9.63;5.45;;;;;;;9.14;100.00;98963.16;1678975;84;21146;-70
2022/09/20 05:42:02;;;;;;;13.93;5.40;;;;;;;9.14;100.00;98963.97;1676752;84;21014;-72
2022/09/20 05:44:53;;;;;;;7.87;5.00;;;;;;;9.15;100.00;98969.69;1652727;84;21034;-88
2022/09/20 05:47:56;;;;;;;9.45;5.47;;;;;;;9.17;100.00;98966.63;1656523;85;21623;-72
2022/09/20 05:50:35;;;;;;;9.50;4.40;;;;;;;9.15;100.00;98966.95;1650737;85;21565;-76
2022/09/20 05:53:43;;;;;;;6.78;4.00;;;;;;;9.15;100.00;98971.05;1650423;85;21267;-78
2022/09/20 05:56:32;;;;;;;10.98;4.72;;;;;;;9.16;100.00;98963.08;1650074;85;21049;-77
2022/09/20 05:59:23;;;;;;;8.48;4.30;;;;;;;9.17;100.00;98968.80;1650121;85;21038;-82
2022/09/20 06:02:19;;;;;;;8.68;4.30;;;;;;;9.19;100.00;98969.85;1636238;85;21486;-81
2022/09/20 06:05:16;;;;;;;6.08;4.25;;;;;;;9.20;100.00;98963.25;1650830;85;21709;-88
2022/09/20 06:08:25;;;;;;;6.78;4.62;;;;;;;9.21;100.00;98963.49;1650199;85;21047;-89
2022/09/20 06:11:33;;;;;;;8.60;4.12;;;;;;;9.21;100.00;98966.23;1652981;84;21009;-80
2022/09/20 06:14:46;;;;;;;13.53;5.08;;;;;;;9.19;100.00;98963.01;1656059;84;21005;-89
2022/09/20 06:17:25;;;;;;;6.47;4.58;;;;;;;9.16;100.00;98965.82;1663433;84;21034;-85
2022/09/20 06:20:26;;;;;;;7.70;5.08;;;;;;;9.14;100.00;98959.86;1679889;83;20983;-80
2022/09/20 06:22:59;;;;;;;24.20;12.37;;;;;;;9.16;100.00;98962.28;1678243;84;21807;-81
2022/09/20 06:25:41;;;;;;;18.02;10.35;;;;;;;9.17;100.00;98963.33;1679306;84;21126;-74
2022/09/20 06:28:24;;;;;;;23.73;12.55;;;;;;;9.19;100.00;98964.37;1677336;83;21023;-75
2022/09/20 06:30:56;;;;;;;28.20;16.10;;;;;;;9.19;100.00;98958.90;1650656;84;21039;-74
2022/09/20 06:33:27;;;;;;;30.40;14.78;;;;;;;9.22;100.00;98961.00;1676073;84;20976;-77
2022/09/20 06:42:01;;;;;;;9.93;5.78;;;;;;;9.34;100.00;98955.66;1682069;83;21093;-85
2022/09/20 06:44:32;;;;;;;11.53;4.70;;;;;;;9.41;100.00;98953.81;1655975;84;21179;-72
2022/09/20 06:47:04;;;;;;;9.40;5.47;;;;;;;9.46;100.00;98953.09;1667312;84;21000;-72
2022/09/20 06:49:34;;;;;;;10.98;5.42;;;;;;;9.52;100.00;98948.25;1655973;85;21109;-72
2022/09/20 06:52:05;;;;;;;8.43;5.00;;;;;;;9.59;100.00;98945.83;1634117;85;21084;-72
2022/09/20 06:54:35;;;;;;;9.30;5.87;;;;;;;9.68;100.00;98948.00;1657578;84;21561;-77
2022/09/20 06:57:03;;;;;;;17.55;6.45;;;;;;;9.76;100.00;98945.81;1699860;82;21091;-88
2022/09/20 06:59:33;;;;;;;8.65;5.30;;;;;;;9.82;100.00;98941.75;1707520;83;21014;-79
2022/09/20 07:01:59;;;;;;;8.03;4.62;;;;;;;9.92;100.00;98948.83;1685826;82;21774;-83
2022/09/20 07:04:28;;;;;;;7.60;3.90;;;;;;;9.96;100.00;98944.86;1645293;85;21066;-83
2022/09/20 07:07:02;;;;;;;6.60;4.25;;;;;;;10.00;100.00;98947.20;1677634;83;20951;-79
2022/09/20 07:09:32;;;;;;;8.95;5.03;;;;;;;10.05;100.00;98949.77;1677115;84;21167;-77
2022/09/20 07:12:02;;;;;;;7.40;4.55;;;;;;;10.10;100.00;98948.22;1676373;84;21010;-76
2022/09/20 07:14:32;;;;;;;6.10;3.70;;;;;;;10.13;100.00;98952.48;1677863;84;21032;-76
2022/09/20 07:17:06;;;;;;;5.97;4.50;;;;;;;10.12;100.00;98944.02;1659833;85;21070;-77
2022/09/20 07:19:36;;;;;;;12.53;6.20;;;;;;;10.17;100.00;98943.04;1640623;86;21633;-82
2022/09/20 07:22:04;;;;;;;16.25;8.13;;;;;;;10.21;100.00;98944.03;1681349;84;21037;-79
2022/09/20 07:24:40;;;;;;;20.02;8.65;;;;;;;10.25;100.00;98937.56;1682377;84;21007;-74
2022/09/20 07:27:13;;;;;;;14.18;7.72;;;;;;;10.27;100.00;98933.12;1676083;84;22129;-76
2022/09/20 07:29:44;;;;;;;11.03;6.22;;;;;;;10.29;100.00;98932.22;1678839;83;21140;-79
2022/09/20 07:32:11;;;;;;;7.87;4.95;;;;;;;10.28;100.00;98931.98;1660614;85;21086;-77
2022/09/20 07:34:40;;;;;;;11.08;4.53;;;;;;;10.29;100.00;98924.56;1651873;86;21045;-76
2022/09/20 07:37:10;;;;;;;6.83;4.70;;;;;;;10.29;100.00;98929.48;1651846;85;21023;-76
2022/09/20 07:39:44;;;;;;;11.08;5.00;;;;;;;10.25;100.00;98926.59;1646267;84;21920;-76
2022/09/20 07:42:15;;;;;;;11.35;4.17;;;;;;;10.23;100.00;98925.30;1648764;84;20963;-76
2022/09/20 07:44:44;;;;;;;6.78;4.17;;;;;;;10.24;100.00;98922.80;1678228;83;21006;-75
2022/09/20 07:47:13;;;;;;;10.30;4.25;;;;;;;10.24;100.00;98929.09;1666600;83;21031;-84
2022/09/20 07:49:41;;;;;;;14.38;4.37;;;;;;;10.24;100.00;98929.66;1676281;84;21077;-75
2022/09/20 07:52:10;;;;;;;9.23;4.53;;;;;;;10.23;100.00;98926.67;1677579;84;21819;-79
2022/09/20 07:54:44;;;;;;;5.97;4.22;;;;;;;10.25;100.00;98926.59;1679995;83;21101;-77
2022/09/20 07:57:20;;;;;;;8.38;4.08;;;;;;;10.25;100.00;98920.30;1678848;84;20966;-77
2022/09/20 07:59:50;;;;;;;5.47;4.17;;;;;;;10.22;100.00;98920.39;1665739;84;20954;-73
2022/09/20 08:02:20;;;;;;;6.90;4.50;;;;;;;10.21;100.00;98920.71;1665408;84;21122;-75
2022/09/20 08:04:48;;;;;;;7.05;3.70;;;;;;;10.19;100.00;98921.58;1678186;84;21134;-75
2022/09/20 08:07:16;;;;;;;9.58;4.50;;;;;;;10.21;100.00;98919.34;1665974;84;20990;-78
2022/09/20 08:09:43;;;;;;;7.22;4.58;;;;;;;10.21;100.00;98921.52;1668821;83;21009;-76
2022/09/20 08:12:16;;;;;;;7.95;4.50;;;;;;;10.19;100.00;98923.78;1680307;83;20978;-75
2022/09/20 08:14:45;;;;;;;11.40;4.17;;;;;;;10.23;100.00;98917.08;1677029;84;21128;-80
2022/09/20 08:17:15;;;;;;;9.23;4.92;;;;;;;10.31;100.00;98912.69;1679548;83;21226;-76
2022/09/20 08:19:54;;;;;;;6.40;3.85;;;;;;;10.35;100.00;98918.56;1698163;82;20954;-74
2022/09/20 08:22:14;;;;;;;12.00;6.00;;;;;;;10.40;100.00;98918.95;1664238;83;21078;-73
2022/09/20 08:24:45;;;;;;;7.78;5.37;;;;;;;10.42;100.00;98933.11;1663923;83;21062;-75
2022/09/20 08:27:14;;;;;;;9.28;4.83;;;;;;;10.41;100.00;98933.67;1652676;84;20974;-83
2022/09/20 08:29:41;;;;;;;7.03;4.50;;;;;;;10.41;100.00;98924.08;1645108;86;21406;-81
2022/09/20 08:32:08;;;;;;;8.33;5.10;;;;;;;10.40;100.00;98925.20;1683565;83;20958;-76
2022/09/20 08:34:34;;;;;;;6.83;4.70;;;;;;;10.41;100.00;98923.27;1670300;84;21564;-71
2022/09/20 08:37:01;;;;;;;7.87;5.70;;;;;;;10.43;100.00;98926.48;1675378;83;20951;-76
2022/09/20 08:39:27;;;;;;;10.10;5.70;;;;;;;10.43;100.00;98924.55;1680019;83;21025;-83
2022/09/20 08:42:23;;;;;;;10.70;5.62;;;;;;;10.44;100.00;98926.16;1678568;84;21799;-87
2022/09/20 08:45:09;;;;;;;13.43;6.20;;;;;;;10.46;100.00;98918.97;1682220;83;21051;-85
2022/09/20 08:47:38;;;;;;;9.40;5.50;;;;;;;10.51;100.00;98921.53;1676263;84;21501;-82
2022/09/20 08:50:06;;;;;;;10.78;5.85;;;;;;;10.58;100.00;98914.95;1678300;84;21121;-74
2022/09/20 08:52:36;;;;;;;12.25;7.37;;;;;;;10.65;100.00;98917.19;1684989;83;21073;-75
2022/09/20 08:55:18;;;;;;;15.18;6.12;;;;;;;10.70;100.00;98921.92;1678094;83;21566;-74
2022/09/20 08:57:51;;;;;;;9.08;5.75;;;;;;;10.76;100.00;98922.53;1677438;83;21097;-75
2022/09/20 09:00:19;;;;;;;;;;;;;;;10.83;100.00;98921.45;1665521;84;21022;-75
2022/09/20 09:02:46;;;;;;;6.47;4.85;;;;;;;10.86;100.00;98914.72;1680546;84;20232;-81
2022/09/20 09:05:32;;;;;;;7.05;4.83;;;;;;;10.90;100.00;98908.80;1676611;84;21003;-76
2022/09/20 09:08:02;;;;;;;14.38;5.97;;;;;;;10.98;100.00;98909.85;1676916;84;21157;-76
2022/09/20 09:10:36;;;;;;;7.33;4.95;;;;;;;11.04;100.00;98906.34;1674856;84;21006;-73
2022/09/20 09:13:04;;;;;;;5.90;4.53;;;;;;;11.06;100.00;98902.13;1674267;84;21098;-73
2022/09/20 09:15:35;;;;;;;11.65;5.17;;;;;;;11.07;100.00;98896.86;1678343;84;21063;-78
2022/09/20 09:18:02;;;;;;;10.38;5.17;;;;;;;11.09;100.00;98904.77;1701873;83;21096;-73
2022/09/20 09:20:29;;;;;;;8.60;5.72;;;;;;;11.10;100.00;98909.92;1707484;83;22716;-77
2022/09/20 09:23:03;;;;;;;8.88;5.37;;;;;;;11.09;100.00;98895.95;1659861;84;20910;-73
2022/09/20 09:25:39;;;;;;;8.90;5.75;;;;;;;11.11;100.00;98895.05;1684742;83;22317;-76
2022/09/20 09:28:11;;;;;;;11.03;5.67;;;;;;;11.16;100.00;98897.60;1683218;83;21008;-82
2022/09/20 09:30:49;;;;;;;10.58;6.30;;;;;;;11.22;100.00;98889.39;1703970;83;21031;-79
2022/09/20 09:33:29;;;;;;;11.20;6.55;;;;;;;11.25;100.00;98898.34;1702337;82;21142;-82
2022/09/20 09:36:06;;;;;;;11.78;7.42;;;;;;;11.33;100.00;98891.73;1700064;82;20978;-76
2022/09/20 09:38:38;;;;;;;8.98;6.35;;;;;;;11.37;100.00;98897.59;1705794;82;20914;-80
2022/09/20 09:41:08;;;;;;;12.60;6.92;;;;;;;11.41;100.00;98897.73;1703602;83;21512;-73
2022/09/20 09:43:36;;;;;;;11.65;7.42;;;;;;;11.45;100.00;98897.29;1705097;82;21029;-77
2022/09/20 09:46:20;;;;;;;11.08;7.35;;;;;;;11.48;100.00;98897.42;1675256;83;21243;-74
2022/09/20 09:48:50;;;;;;;10.43;7.10;;;;;;;11.53;100.00;98893.66;1677854;84;20998;-74
2022/09/20 09:51:19;;;;;;;14.03;6.85;;;;;;;11.55;100.00;98896.27;1674381;84;21727;-78
2022/09/20 09:53:50;;;;;;;11.95;7.65;;;;;;;11.57;100.00;98891.81;1676865;84;21089;-80
2022/09/20 09:56:26;;;;;;;11.35;7.08;;;;;;;11.53;100.00;98890.91;1670117;83;21073;-73
2022/09/20 09:59:37;;;;;;;12.82;7.03;;;;;;;11.51;100.00;98881.63;1678043;84;21289;-80
2022/09/20 10:02:43;;;;;;;10.28;7.00;;;;;;;11.52;100.00;98882.43;1679662;83;21053;-75
2022/09/20 10:05:24;;;;;;;9.40;6.00;;;;;;;11.46;100.00;98879.66;1676307;84;21066;-76
2022/09/20 10:08:30;;;;;;;15.73;7.03;;;;;;;11.43;100.00;98878.39;1677721;83;21649;-77
2022/09/20 10:11:24;;;;;;;10.53;7.00;;;;;;;11.44;100.00;98880.00;1679010;84;21421;-80
2022/09/20 10:14:30;;;;;;;9.15;6.10;;;;;;;11.45;100.00;98876.68;1678020;83;21723;-84
2022/09/20 10:17:25;;;;;;;12.58;6.53;;;;;;;11.44;100.00;98875.88;1661797;84;21009;-84
2022/09/20 10:20:32;;;;;;;7.50;6.17;;;;;;;11.41;100.00;98869.67;1649852;84;21413;-74
2022/09/20 10:23:16;;;;;;;8.45;5.53;;;;;;;11.43;100.00;98862.47;1647636;85;21560;-73
2022/09/20 10:26:06;;;;;;;9.20;5.75;;;;;;;11.47;100.00;98862.03;1647576;85;21113;-81
2022/09/20 10:28:54;;;;;;;8.53;5.95;;;;;;;11.50;100.00;98862.16;1648920;85;21106;-73
2022/09/20 10:31:40;;;;;;;8.58;6.17;;;;;;;11.50;100.00;98858.61;1625063;85;21018;-78
2022/09/20 10:34:36;;;;;;;9.53;6.28;;;;;;;11.46;100.00;98859.05;1619518;87;21155;-78
2022/09/20 10:37:03;;;;;;;11.68;7.45;;;;;;;11.41;100.00;98856.50;1608989;86;21560;-79
2022/09/20 10:39:34;;;;;;;11.45;6.80;;;;;;;11.40;100.00;98859.83;1632117;86;21044;-79
2022/09/20 10:45:17;;;;;;;11.70;7.00;;;;;;;11.41;100.00;98857.87;1676539;83;21011;-77
2022/09/20 10:48:07;;;;;;;11.12;7.92;;;;;;;11.39;100.00;98847.80;1678157;84;21074;-83
2022/09/20 10:51:00;;;;;;;10.70;5.83;;;;;;;11.39;100.00;98849.17;1677604;84;21003;-82
2022/09/20 10:53:54;;;;;;;6.30;4.80;;;;;;;11.40;100.00;98852.15;1645638;85;21575;-77
2022/09/20 10:56:35;;;;;;;45.83;7.12;;;;;;;11.36;100.00;98851.22;1641007;85;21711;-76
2022/09/20 10:59:32;;;;;;;8.18;3.80;;;;;;;11.29;100.00;98849.59;1635889;86;21115;-79
2022/09/20 11:02:21;;;;;;;3.95;2.92;;;;;;;11.28;100.00;98846.03;1635761;85;21078;-78
2022/09/20 11:05:13;;;;;;;4.62;2.25;;;;;;;11.27;100.00;98849.12;1628598;86;21514;-81
2022/09/20 11:08:08;;;;;;;6.95;2.75;;;;;;;11.18;100.00;98844.50;1665531;83;20973;-76
2022/09/20 11:10:57;;;;;;;5.37;3.47;;;;;;;11.18;100.00;98832.71;1651485;85;21456;-78
2022/09/20 11:13:41;;;;;;;6.53;3.47;;;;;;;11.30;100.00;98837.45;1647276;85;21018;-82
2022/09/20 11:16:18;;;;;;;6.53;4.58;;;;;;;11.33;100.00;98842.28;1651468;85;21109;-83
2022/09/20 11:18:59;;;;;;;6.03;4.78;;;;;;;11.30;100.00;98834.14;1650168;85;21652;-82
2022/09/20 11:21:35;;;;;;;8.28;5.47;;;;;;;11.30;100.00;98834.70;1681168;84;21109;-76
2022/09/20 11:24:35;;;;;;;6.72;4.58;;;;;;;11.28;100.00;98836.98;1672991;84;21111;-76
2022/09/20 11:27:21;;;;;;;5.97;3.90;;;;;;;11.27;100.00;98839.50;1664684;84;21423;-82
2022/09/20 11:30:17;;;;;;;5.50;3.20;;;;;;;11.20;100.00;98836.73;1681736;83;21025;-84
2022/09/20 11:32:59;;;;;;;8.93;4.00;;;;;;;11.11;100.00;98834.63;1657471;84;21075;-83
2022/09/20 11:35:54;;;;;;;7.17;3.27;;;;;;;11.05;100.00;98833.22;1682052;84;21092;-79
2022/09/20 11:38:36;;;;;;;10.40;4.30;;;;;;;11.02;100.00;98834.46;1679016;84;21153;-79
2022/09/20 11:41:16;;;;;;;7.47;4.22;;;;;;;10.98;100.00;98836.27;1675317;84;21467;-83
2022/09/20 11:43:45;;;;;;;9.70;4.22;;;;;;;10.90;100.00;98843.47;1680141;84;21120;-81
2022/09/20 11:46:26;;;;;;;11.15;5.45;;;;;;;10.84;100.00;98837.94;1654211;85;21479;-75
2022/09/20 11:49:05;;;;;;;10.60;5.28;;;;;;;10.80;100.00;98838.38;1677032;84;21082;-72
2022/09/20 11:51:56;;;;;;;9.60;5.47;;;;;;;10.76;100.00;98831.38;1679348;83;20872;-72
2022/09/20 11:55:01;;;;;;;7.62;5.12;;;;;;;10.74;100.00;98828.72;1667811;83;20914;-75
2022/09/20 11:57:28;;;;;;;12.68;5.37;;;;;;;10.72;100.00;98822.77;1679675;83;21140;-74
2022/09/20 12:00:02;;;;;;;11.48;5.37;;;;;;;10.69;100.00;98828.92;1688153;83;21081;-74
2022/09/20 12:02:51;;;;;;;6.05;4.40;;;;;;;10.68;100.00;98828.11;1680560;83;21182;-78
2022/09/20 12:05:40;;;;;;;9.00;5.78;;;;;;;10.66;100.00;98826.27;1674517;84;21280;-75
2022/09/20 12:08:14;;;;;;;7.47;5.22;;;;;;;10.63;100.00;98822.02;1675563;83;21537;-76
2022/09/20 12:10:44;;;;;;;14.20;7.53;;;;;;;10.59;100.00;98822.69;1677712;84;21081;-75
2022/09/20 12:13:23;;;;;;;9.35;6.35;;;;;;;10.59;100.00;98827.37;1660836;84;21545;-72
2022/09/20 12:16:18;;;;;;;10.43;6.22;;;;;;;10.57;100.00;98827.70;1669769;84;21077;-76
2022/09/20 12:19:01;;;;;;;9.88;6.60;;;;;;;10.58;100.00;98829.31;1636292;86;22332;-73
2022/09/20 12:21:34;;;;;;;15.45;8.18;;;;;;;10.62;100.00;98819.04;1599612;88;21159;-72
2022/09/20 12:24:10;;;;;;;13.15;8.35;;;;;;;10.66;100.00;98823.53;1605876;88;21108;-70
2022/09/20 12:26:40;;;;;;;15.98;9.88;;;;;;;10.68;100.00;98827.31;1616871;86;21555;-70
2022/09/20 12:29:30;;;;;;;17.82;9.43;;;;;;;10.67;100.00;98828.45;1620356;85;21589;-72
2022/09/20 12:32:00;;;;;;;14.70;10.18;;;;;;;10.67;100.00;98827.87;1639526;85;21171;-74
2022/09/20 12:34:35;;;;;;;14.87;9.68;;;;;;;10.67;100.00;98825.70;1619853;87;21042;-74
2022/09/20 12:37:09;;;;;;;18.77;10.95;;;;;;;10.68;100.00;98825.38;1574402;88;21044;-74
2022/09/20 12:39:38;;;;;;;19.50;11.25;;;;;;;10.68;100.00;98823.20;1679275;83;21586;-75
2022/09/20 12:42:20;;;;;;;18.82;11.90;;;;;;;10.70;100.00;98816.23;1676998;83;21528;-74
2022/09/20 12:45:17;;;;;;;15.60;9.55;;;;;;;10.72;100.00;98809.03;1680070;83;21911;-80